createdAt,value
2023-04-04T00:01:10.923Z,8.40
2023-04-04T00:03:38.967Z,8.70
2023-04-04T00:06:07.802Z,9.70
2023-04-04T00:08:35.556Z,10.40
2023-04-04T00:11:03.318Z,8.30
2023-04-04T00:13:31.286Z,9.20
2023-04-04T00:15:59.126Z,7.80
2023-04-04T00:18:27.020Z,7.80
2023-04-04T00:20:54.877Z,9.90
2023-04-04T00:23:22.649Z,7.00
2023-04-04T00:25:50.920Z,11.40
2023-04-04T00:28:18.554Z,8.50
2023-04-04T00:30:47.062Z,8.40
2023-04-04T00:33:14.691Z,7.20
2023-04-04T00:35:42.436Z,10.90
2023-04-04T00:38:10.153Z,6.10
2023-04-04T00:40:38.109Z,8.40
2023-04-04T00:43:06.396Z,8.40
2023-04-04T00:45:34.720Z,7.70
2023-04-04T00:48:02.437Z,5.90
2023-04-04T00:50:32.362Z,9.60
2023-04-04T00:53:00.187Z,9.40
2023-04-04T00:55:28.186Z,9.10
2023-04-04T00:57:55.847Z,5.30
2023-04-04T01:00:23.508Z,7.30
2023-04-04T01:02:51.713Z,9.60
2023-04-04T01:05:19.562Z,5.80
2023-04-04T01:07:47.616Z,6.60
2023-04-04T01:10:15.382Z,6.10
2023-04-04T01:12:43.330Z,8.40
2023-04-04T01:15:11.221Z,6.70
2023-04-04T01:17:39.195Z,10.00
2023-04-04T01:20:06.956Z,8.40
2023-04-04T01:22:34.711Z,9.60
2023-04-04T01:25:03.195Z,11.40
2023-04-04T01:27:31.672Z,8.40
2023-04-04T01:29:59.441Z,6.90
2023-04-04T01:32:27.147Z,9.60
2023-04-04T01:34:54.873Z,10.10
2023-04-04T01:37:22.631Z,8.50
2023-04-04T01:39:50.301Z,5.40
2023-04-04T01:42:20.208Z,11.40
2023-04-04T01:44:47.969Z,6.20
2023-04-04T01:47:16.246Z,6.10
2023-04-04T01:49:44.828Z,6.40
2023-04-04T01:52:12.503Z,8.90
2023-04-04T01:54:40.261Z,8.00
2023-04-04T01:57:08.752Z,10.10
2023-04-04T01:59:36.707Z,9.30
2023-04-04T02:02:04.371Z,7.00
2023-04-04T02:04:32.189Z,9.80
2023-04-04T02:07:00.403Z,9.60
2023-04-04T02:09:28.245Z,8.10
2023-04-04T02:11:56.444Z,9.20
2023-04-04T02:14:24.121Z,9.80
2023-04-04T02:16:51.975Z,8.30
2023-04-04T02:19:20.246Z,10.30
2023-04-04T02:21:48.011Z,8.70
2023-04-04T02:24:15.669Z,9.50
2023-04-04T02:26:43.434Z,6.80
2023-04-04T02:29:11.406Z,8.10
2023-04-04T02:31:39.256Z,10.40
2023-04-04T02:34:07.136Z,9.10
2023-04-04T02:36:34.899Z,8.00
2023-04-04T02:39:02.767Z,7.50
2023-04-04T02:41:30.534Z,8.80
2023-04-04T02:43:58.294Z,13.60
2023-04-04T02:46:26.301Z,11.30
2023-04-04T02:48:54.044Z,8.70
2023-04-04T02:51:21.791Z,5.60
2023-04-04T02:53:49.576Z,8.50
2023-04-04T02:56:17.638Z,8.30
2023-04-04T02:58:45.865Z,4.40
2023-04-04T03:01:13.758Z,7.80
2023-04-04T03:03:41.613Z,8.80
2023-04-04T03:06:09.507Z,12.20
2023-04-04T03:08:37.379Z,10.80
2023-04-04T03:11:05.145Z,14.70
2023-04-04T03:13:32.858Z,13.20
2023-04-04T03:16:02.927Z,11.00
2023-04-04T03:18:30.592Z,8.70
2023-04-04T03:20:58.658Z,7.10
2023-04-04T03:23:26.415Z,11.60
2023-04-04T03:25:55.328Z,9.80
2023-04-04T03:28:23.480Z,10.30
2023-04-04T03:30:51.544Z,8.90
2023-04-04T03:33:19.926Z,8.30
2023-04-04T03:35:48.058Z,8.00
2023-04-04T03:38:15.974Z,7.80
2023-04-04T03:40:44.308Z,7.90
2023-04-04T03:43:12.931Z,6.80
2023-04-04T03:45:40.617Z,7.40
2023-04-04T03:48:08.354Z,8.10
2023-04-04T03:50:36.433Z,6.50
2023-04-04T03:53:04.197Z,10.90
2023-04-04T03:55:31.848Z,9.50
2023-04-04T03:57:59.510Z,10.80
2023-04-04T04:00:27.272Z,8.70
2023-04-04T04:02:55.120Z,10.40
2023-04-04T04:05:22.905Z,12.00
2023-04-04T04:07:50.565Z,7.60
2023-04-04T04:10:18.551Z,8.70
2023-04-04T04:12:47.631Z,10.80
2023-04-04T04:15:15.288Z,12.50
2023-04-04T04:17:42.967Z,10.40
2023-04-04T04:20:10.729Z,11.60
2023-04-04T04:22:38.481Z,10.00
2023-04-04T04:25:06.348Z,6.90
2023-04-04T04:27:34.314Z,8.70
2023-04-04T04:30:01.987Z,6.60
2023-04-04T04:32:29.769Z,6.70
2023-04-04T04:34:57.507Z,6.50
2023-04-04T04:37:26.504Z,14.40
2023-04-04T04:39:54.166Z,7.30
2023-04-04T04:42:21.927Z,7.60
2023-04-04T04:44:49.690Z,6.20
2023-04-04T04:47:17.355Z,8.70
2023-04-04T04:49:48.290Z,12.90
2023-04-04T04:52:16.162Z,11.60
2023-04-04T04:54:44.028Z,10.50
2023-04-04T04:57:11.794Z,11.10
2023-04-04T04:59:41.498Z,8.50
2023-04-04T05:02:09.304Z,13.30
2023-04-04T05:04:37.137Z,10.70
2023-04-04T05:07:04.890Z,11.40
2023-04-04T05:09:32.552Z,12.70
2023-04-04T05:12:00.223Z,11.50
2023-04-04T05:14:27.977Z,5.50
2023-04-04T05:16:55.711Z,7.40
2023-04-04T05:19:23.620Z,10.00
2023-04-04T05:21:51.377Z,8.60
2023-04-04T05:24:19.364Z,8.50
2023-04-04T05:26:47.412Z,8.90
2023-04-04T05:29:15.196Z,10.10
2023-04-04T05:31:42.845Z,8.30
2023-04-04T05:34:10.804Z,7.80
2023-04-04T05:36:38.626Z,13.00
2023-04-04T05:39:06.645Z,14.80
2023-04-04T05:41:34.302Z,28.20
2023-04-04T05:44:01.967Z,16.40
2023-04-04T05:46:30.095Z,11.20
2023-04-04T05:48:58.008Z,12.40
2023-04-04T05:51:25.775Z,25.00
2023-04-04T05:53:53.539Z,12.10
2023-04-04T05:56:22.114Z,21.00
2023-04-04T05:58:49.899Z,11.80
2023-04-04T06:01:18.666Z,11.20
2023-04-04T06:03:46.566Z,7.50
2023-04-04T06:06:14.353Z,8.20
2023-04-04T06:11:18.223Z,9.60
2023-04-04T06:13:45.986Z,7.80
2023-04-04T06:16:13.811Z,12.00
2023-04-04T06:18:41.616Z,5.80
2023-04-04T06:21:09.384Z,8.40
2023-04-04T06:23:37.977Z,19.60
2023-04-04T06:26:05.931Z,11.30
2023-04-04T06:28:33.602Z,11.90
2023-04-04T06:31:02.081Z,18.50
2023-04-04T06:33:29.740Z,20.80
2023-04-04T06:35:57.414Z,18.70
2023-04-04T06:38:25.158Z,13.30
2023-04-04T06:40:52.828Z,11.40
2023-04-04T06:43:21.609Z,20.50
2023-04-04T06:45:49.271Z,23.70
2023-04-04T06:48:17.036Z,12.10
2023-04-04T06:50:44.681Z,7.20
2023-04-04T06:53:13.074Z,17.50
2023-04-04T06:55:40.715Z,17.80
2023-04-04T06:58:08.402Z,9.20
2023-04-04T07:00:36.364Z,8.40
2023-04-04T07:03:04.617Z,9.90
2023-04-04T07:05:32.506Z,21.20
2023-04-04T07:08:00.179Z,22.70
2023-04-04T07:10:27.967Z,10.00
2023-04-04T07:12:55.707Z,8.70
2023-04-04T07:15:23.473Z,12.10
2023-04-04T07:17:51.259Z,9.80
2023-04-04T07:20:19.104Z,11.00
2023-04-04T07:22:46.737Z,11.80
2023-04-04T07:25:14.538Z,15.90
2023-04-04T07:27:42.593Z,12.40
2023-04-04T07:30:10.764Z,17.20
2023-04-04T07:32:38.564Z,16.30
2023-04-04T07:35:07.074Z,15.10
2023-04-04T07:37:35.079Z,8.70
2023-04-04T07:40:02.956Z,9.30
2023-04-04T07:42:31.322Z,8.90
2023-04-04T07:44:59.086Z,9.70
2023-04-04T07:47:27.907Z,7.40
2023-04-04T07:49:55.637Z,8.80
2023-04-04T07:52:23.403Z,11.60
2023-04-04T07:54:51.987Z,14.80
2023-04-04T07:57:19.651Z,9.20
2023-04-04T07:59:47.513Z,9.10
2023-04-04T08:02:15.200Z,8.60
2023-04-04T08:04:43.117Z,9.80
2023-04-04T08:07:11.213Z,8.40
2023-04-04T08:09:38.874Z,9.10
2023-04-04T08:12:06.640Z,13.00
2023-04-04T08:14:34.401Z,10.20
2023-04-04T08:17:02.576Z,9.00
2023-04-04T08:19:30.238Z,8.70
2023-04-04T08:21:57.998Z,10.90
2023-04-04T08:24:27.754Z,15.90
2023-04-04T08:27:04.472Z,14.20
2023-04-04T08:29:34.639Z,18.30
2023-04-04T08:32:02.469Z,10.50
2023-04-04T08:34:30.232Z,7.60
2023-04-04T08:36:58.200Z,9.20
2023-04-04T08:39:26.268Z,10.60
2023-04-04T08:41:54.036Z,7.50
2023-04-04T08:44:23.005Z,10.50
2023-04-04T08:46:51.022Z,7.10
2023-04-04T08:49:19.078Z,7.10
2023-04-04T08:51:46.839Z,5.90
2023-04-04T08:54:14.914Z,13.00
2023-04-04T08:56:42.770Z,7.40
2023-04-04T08:59:14.329Z,9.40
2023-04-04T09:01:42.547Z,7.90
2023-04-04T09:04:10.507Z,12.00
2023-04-04T09:06:38.655Z,5.50
2023-04-04T09:09:06.826Z,8.20
2023-04-04T09:11:34.494Z,6.10
2023-04-04T09:14:04.630Z,12.90
2023-04-04T09:16:32.391Z,7.50
2023-04-04T09:19:00.131Z,6.20
2023-04-04T09:21:29.549Z,4.10
2023-04-04T09:23:57.403Z,4.50
2023-04-04T09:26:25.371Z,1.90
2023-04-04T09:28:53.052Z,89.30
2023-04-04T09:31:21.000Z,59.40
2023-04-04T09:33:48.764Z,25.70
2023-04-04T09:36:18.092Z,15.80
2023-04-04T09:38:49.000Z,11.50
2023-04-04T09:41:17.154Z,7.10
2023-04-04T09:43:45.054Z,12.60
2023-04-04T09:46:12.854Z,7.50
2023-04-04T09:48:41.803Z,5.60
2023-04-04T09:51:09.460Z,4.10
2023-04-04T09:53:37.963Z,5.60
2023-04-04T09:56:05.809Z,5.00
2023-04-04T09:58:36.433Z,3.20
2023-04-04T10:01:04.316Z,2.80
2023-04-04T10:03:32.071Z,4.60
2023-04-04T10:06:00.237Z,7.10
2023-04-04T10:08:27.958Z,4.80
2023-04-04T10:11:09.537Z,6.00
2023-04-04T10:13:44.322Z,8.90
2023-04-04T10:16:12.500Z,10.20
2023-04-04T10:18:40.475Z,16.10
2023-04-04T10:23:39.883Z,5.30
2023-04-04T10:26:07.780Z,6.80
2023-04-04T10:28:35.620Z,5.50
2023-04-04T10:31:06.708Z,5.90
2023-04-04T10:33:35.037Z,5.30
2023-04-04T10:36:03.756Z,5.10
2023-04-04T10:38:31.587Z,4.10
2023-04-04T10:40:59.761Z,3.90
2023-04-04T10:43:28.445Z,5.60
2023-04-04T10:45:56.209Z,3.90
2023-04-04T10:48:23.973Z,2.90
2023-04-04T10:50:51.634Z,4.90
2023-04-04T10:53:19.300Z,3.70
2023-04-04T10:55:47.072Z,4.50
2023-04-04T10:58:15.045Z,5.80
2023-04-04T11:00:42.859Z,3.80
2023-04-04T11:03:10.881Z,3.60
2023-04-04T11:05:47.131Z,3.30
2023-04-04T11:08:16.883Z,4.40
2023-04-04T11:10:44.893Z,4.00
2023-04-04T11:13:14.445Z,4.90
2023-04-04T11:15:42.995Z,4.40
2023-04-04T11:18:28.834Z,5.70
2023-04-04T11:20:59.723Z,2.40
2023-04-04T11:23:27.779Z,4.30
2023-04-04T11:25:55.863Z,4.60
2023-04-04T11:28:23.835Z,4.50
2023-04-04T11:30:51.630Z,5.90
2023-04-04T11:33:19.491Z,3.90
2023-04-04T11:35:48.677Z,4.80
2023-04-04T11:38:17.255Z,5.00
2023-04-04T11:40:44.903Z,30.20
2023-04-04T11:43:12.774Z,12.40
2023-04-04T11:45:40.652Z,24.50
2023-04-04T11:48:08.610Z,16.20
2023-04-04T11:50:36.370Z,8.20
2023-04-04T11:53:04.139Z,4.30
2023-04-04T11:55:32.308Z,5.10
2023-04-04T11:58:02.840Z,4.80
2023-04-04T12:00:30.704Z,13.50
2023-04-04T12:02:58.674Z,5.20
2023-04-04T12:05:26.699Z,5.10
2023-04-04T12:07:54.713Z,3.60
2023-04-04T12:10:22.391Z,3.80
2023-04-04T12:12:50.548Z,9.70
2023-04-04T12:15:18.311Z,4.00
2023-04-04T12:17:47.952Z,11.40
2023-04-04T12:20:15.681Z,9.40
2023-04-04T12:22:44.066Z,14.30
2023-04-04T12:25:11.926Z,11.50
2023-04-04T12:27:40.100Z,9.20
2023-04-04T12:30:15.485Z,10.40
2023-04-04T12:32:43.439Z,9.30
2023-04-04T12:35:12.196Z,4.70
2023-04-04T12:37:41.403Z,5.20
2023-04-04T12:40:09.160Z,3.60
2023-04-04T12:42:36.926Z,9.30
2023-04-04T12:45:05.402Z,13.20
2023-04-04T12:47:33.319Z,11.50
2023-04-04T12:50:01.444Z,8.40
2023-04-04T12:52:30.544Z,7.00
2023-04-04T12:55:07.574Z,6.20
2023-04-04T12:57:36.123Z,10.10
2023-04-04T13:00:04.686Z,8.70
2023-04-04T13:02:32.566Z,12.20
2023-04-04T13:05:00.423Z,10.20
2023-04-04T13:07:28.073Z,9.80
2023-04-04T13:09:55.944Z,8.90
2023-04-04T13:12:24.013Z,4.20
2023-04-04T13:14:51.981Z,6.00
2023-04-04T13:17:19.647Z,5.00
2023-04-04T13:19:47.418Z,9.00
2023-04-04T13:22:15.181Z,5.60
2023-04-04T13:24:42.841Z,6.90
2023-04-04T13:27:10.608Z,4.70
2023-04-04T13:29:38.368Z,8.90
2023-04-04T13:32:06.137Z,12.00
2023-04-04T13:34:36.291Z,9.30
2023-04-04T13:37:04.147Z,10.40
2023-04-04T13:39:32.191Z,4.50
2023-04-04T13:41:59.850Z,7.50
2023-04-04T13:44:27.486Z,7.20
2023-04-04T13:46:55.173Z,9.90
2023-04-04T13:49:22.943Z,7.30
2023-04-04T13:51:50.812Z,12.80
2023-04-04T13:54:18.469Z,9.30
2023-04-04T13:56:47.563Z,8.10
2023-04-04T13:59:15.455Z,9.30
2023-04-04T14:01:43.354Z,11.30
2023-04-04T14:04:22.802Z,13.10
2023-04-04T14:06:52.032Z,10.00
2023-04-04T14:09:19.689Z,11.40
2023-04-04T14:11:47.663Z,11.50
2023-04-04T14:14:15.322Z,7.20
2023-04-04T14:16:42.991Z,6.00
2023-04-04T14:19:10.849Z,5.10
2023-04-04T14:21:38.612Z,8.80
2023-04-04T14:24:06.377Z,10.10
2023-04-04T14:26:35.118Z,10.80
2023-04-04T14:29:02.929Z,6.30
2023-04-04T14:31:32.690Z,12.70
2023-04-04T14:34:01.017Z,8.30
2023-04-04T14:36:28.792Z,6.80
2023-04-04T14:38:57.030Z,7.80
2023-04-04T14:41:24.839Z,9.20
2023-04-04T14:43:52.626Z,7.50
2023-04-04T14:46:20.630Z,5.60
2023-04-04T14:48:48.360Z,6.50
2023-04-04T14:51:17.013Z,8.40
2023-04-04T14:53:44.771Z,4.10
2023-04-04T14:56:13.157Z,5.40
2023-04-04T14:58:40.911Z,5.60
2023-04-04T15:01:09.125Z,11.30
2023-04-04T15:03:36.846Z,9.50
2023-04-04T15:06:05.088Z,10.80
2023-04-04T15:08:32.746Z,6.10
2023-04-04T15:11:00.508Z,9.60
2023-04-04T15:13:28.212Z,12.20
2023-04-04T15:15:55.874Z,10.40
2023-04-04T15:18:23.536Z,28.70
2023-04-04T15:20:53.961Z,16.80
2023-04-04T15:23:21.835Z,16.10
2023-04-04T15:25:49.591Z,14.00
2023-04-04T15:28:17.355Z,11.40
2023-04-04T15:30:45.022Z,11.00
2023-04-04T15:33:13.381Z,15.70
2023-04-04T15:35:41.266Z,12.50
2023-04-04T15:38:09.022Z,11.10
2023-04-04T15:40:36.785Z,10.60
2023-04-04T15:43:04.448Z,8.10
2023-04-04T15:45:32.426Z,10.70
2023-04-04T15:48:00.224Z,8.80
2023-04-04T15:50:28.046Z,9.20
2023-04-04T15:52:55.811Z,10.60
2023-04-04T15:55:23.578Z,7.90
2023-04-04T15:57:51.647Z,6.50
2023-04-04T16:00:19.409Z,10.60
2023-04-04T16:02:47.382Z,9.40
2023-04-04T16:05:15.135Z,9.90
2023-04-04T16:07:42.805Z,12.40
2023-04-04T16:10:10.794Z,13.10
2023-04-04T16:12:38.545Z,11.30
2023-04-04T16:15:06.319Z,7.80
2023-04-04T16:17:33.981Z,10.10
2023-04-04T16:20:02.077Z,13.00
2023-04-04T16:22:30.006Z,15.90
2023-04-04T16:24:57.666Z,13.20
2023-04-04T16:27:25.633Z,13.20
2023-04-04T16:29:53.421Z,12.70
2023-04-04T16:32:21.376Z,9.20
2023-04-04T16:34:49.137Z,8.90
2023-04-04T16:37:17.411Z,6.90
2023-04-04T16:39:46.808Z,8.80
2023-04-04T16:42:14.573Z,10.20
2023-04-04T16:44:42.442Z,11.20
2023-04-04T16:47:11.040Z,9.10
2023-04-04T16:49:40.257Z,7.90
2023-04-04T16:52:09.831Z,10.60
2023-04-04T16:54:38.211Z,11.90
2023-04-04T16:57:05.975Z,7.90
2023-04-04T16:59:37.311Z,7.10
2023-04-04T17:02:05.596Z,11.70
2023-04-04T17:04:33.366Z,12.50
2023-04-04T17:07:01.224Z,9.30
2023-04-04T17:09:29.090Z,8.40
2023-04-04T17:11:57.366Z,5.60
2023-04-04T17:14:25.137Z,8.30
2023-04-04T17:16:53.458Z,16.60
2023-04-04T17:19:21.478Z,11.30
2023-04-04T17:21:49.142Z,11.00
2023-04-04T17:24:17.209Z,10.30
2023-04-04T17:26:46.467Z,12.40
2023-04-04T17:29:15.501Z,11.00
2023-04-04T17:31:43.625Z,14.20
2023-04-04T17:34:13.000Z,10.80
2023-04-04T17:36:41.258Z,11.90
2023-04-04T17:39:09.120Z,8.80
2023-04-04T17:41:36.883Z,13.40
2023-04-04T17:44:04.647Z,7.30
2023-04-04T17:46:32.362Z,8.80
2023-04-04T17:49:00.493Z,11.50
2023-04-04T17:51:28.762Z,9.50
2023-04-04T17:53:56.524Z,12.50
2023-04-04T17:56:24.186Z,7.70
2023-04-04T17:58:53.597Z,12.00
2023-04-04T18:01:22.489Z,10.40
2023-04-04T18:03:50.344Z,11.80
2023-04-04T18:06:18.315Z,18.70
2023-04-04T18:08:45.986Z,11.00
2023-04-04T18:11:13.741Z,14.60
2023-04-04T18:13:41.399Z,25.30
2023-04-04T18:16:10.317Z,17.10
2023-04-04T18:18:40.515Z,11.10
2023-04-04T18:21:08.597Z,12.00
2023-04-04T18:23:36.756Z,11.00
2023-04-04T18:26:04.537Z,12.70
2023-04-04T18:28:32.491Z,14.30
2023-04-04T18:31:00.160Z,10.30
2023-04-04T18:33:28.225Z,9.90
2023-04-04T18:35:56.283Z,13.00
2023-04-04T18:38:25.269Z,11.00
2023-04-04T18:40:53.156Z,13.10
2023-04-04T18:43:20.811Z,21.70
2023-04-04T18:45:48.998Z,12.00
2023-04-04T18:48:16.955Z,11.80
2023-04-04T18:50:45.855Z,13.20
2023-04-04T18:53:13.514Z,9.80
2023-04-04T18:55:41.273Z,8.00
2023-04-04T18:58:08.940Z,13.30
2023-04-04T19:00:36.618Z,17.30
2023-04-04T19:03:04.864Z,30.30
2023-04-04T19:05:33.560Z,28.60
2023-04-04T19:08:01.331Z,18.40
2023-04-04T19:10:29.191Z,17.70
2023-04-04T19:12:57.079Z,22.80
2023-04-04T19:15:25.127Z,21.40
2023-04-04T19:17:53.548Z,19.30
2023-04-04T19:20:21.479Z,23.70
2023-04-04T19:22:49.238Z,22.90
2023-04-04T19:25:17.212Z,21.20
2023-04-04T19:27:44.873Z,13.70
2023-04-04T19:30:12.534Z,13.00
2023-04-04T19:32:40.314Z,14.30
2023-04-04T19:35:08.063Z,14.20
2023-04-04T19:37:35.942Z,12.60
2023-04-04T19:40:03.689Z,15.40
2023-04-04T19:42:31.460Z,10.50
2023-04-04T19:44:59.115Z,14.90
2023-04-04T19:47:26.814Z,13.60
2023-04-04T19:49:54.747Z,9.30
2023-04-04T19:52:22.508Z,6.60
2023-04-04T19:54:50.212Z,8.30
2023-04-04T19:57:18.459Z,11.40
2023-04-04T19:59:46.412Z,14.80
2023-04-04T20:02:14.184Z,24.10
2023-04-04T20:04:42.056Z,28.40
2023-04-04T20:07:10.015Z,23.00
2023-04-04T20:09:40.274Z,34.70
2023-04-04T20:12:09.637Z,26.50
2023-04-04T20:14:37.293Z,25.30
2023-04-04T20:17:04.963Z,25.40
2023-04-04T20:19:32.722Z,21.40
2023-04-04T20:22:00.689Z,25.40
2023-04-04T20:24:28.765Z,29.10
2023-04-04T20:26:58.372Z,20.80
2023-04-04T20:29:26.370Z,11.60
2023-04-04T20:31:54.222Z,12.90
2023-04-04T20:34:21.863Z,11.60
2023-04-04T20:36:49.632Z,11.70
2023-04-04T20:39:17.286Z,14.40
2023-04-04T20:41:44.954Z,13.50
2023-04-04T20:44:12.611Z,11.90
2023-04-04T20:46:40.580Z,13.80
2023-04-04T20:49:08.249Z,16.60
2023-04-04T20:51:37.967Z,18.90
2023-04-04T20:54:05.926Z,27.70
2023-04-04T20:56:33.615Z,30.20
2023-04-04T20:59:01.366Z,40.40
2023-04-04T21:01:29.064Z,42.20
2023-04-04T21:03:56.883Z,29.90
2023-04-04T21:06:24.543Z,38.10
2023-04-04T21:08:52.210Z,24.10
2023-04-04T21:11:19.968Z,25.20
2023-04-04T21:13:47.740Z,17.00
2023-04-04T21:16:17.169Z,16.70
2023-04-04T21:18:45.008Z,18.20
2023-04-04T21:21:12.761Z,14.00
2023-04-04T21:23:40.631Z,15.60
2023-04-04T21:26:08.400Z,24.90
2023-04-04T21:28:36.166Z,22.30
2023-04-04T21:31:03.952Z,18.00
2023-04-04T21:33:31.784Z,13.90
2023-04-04T21:35:59.596Z,16.60
2023-04-04T21:38:27.612Z,13.60
2023-04-04T21:40:55.483Z,9.60
2023-04-04T21:43:23.150Z,11.00
2023-04-04T21:45:51.057Z,10.00
2023-04-04T21:48:18.897Z,10.40
2023-04-04T21:50:46.643Z,10.70
2023-04-04T21:53:14.442Z,13.80
2023-04-04T21:55:42.175Z,15.70
2023-04-04T21:58:09.939Z,14.90
2023-04-04T22:00:37.667Z,10.60
2023-04-04T22:03:05.585Z,15.00
2023-04-04T22:05:39.084Z,12.30
2023-04-04T22:08:07.243Z,10.20
2023-04-04T22:10:34.999Z,11.00
2023-04-04T22:13:02.662Z,11.20
2023-04-04T22:15:31.155Z,12.30
2023-04-04T22:18:05.414Z,12.30
2023-04-04T22:20:33.226Z,11.70
2023-04-04T22:23:05.392Z,12.00
2023-04-04T22:25:34.074Z,13.20
2023-04-04T22:28:04.617Z,11.90
2023-04-04T22:30:32.384Z,13.90
2023-04-04T22:33:00.553Z,14.10
2023-04-04T22:35:28.240Z,12.00
2023-04-04T22:38:01.089Z,14.10
2023-04-04T22:40:28.757Z,17.50
2023-04-04T22:42:56.595Z,15.00
2023-04-04T22:45:24.300Z,12.60
2023-04-04T22:47:52.065Z,13.30
2023-04-04T22:50:19.810Z,11.20
2023-04-04T22:52:48.502Z,10.80
2023-04-04T22:55:16.366Z,9.20
2023-04-04T22:57:44.128Z,13.80
2023-04-04T23:00:12.080Z,12.40
2023-04-04T23:02:39.811Z,9.50
2023-04-04T23:05:08.546Z,12.60
2023-04-04T23:07:36.312Z,12.30
2023-04-04T23:10:03.971Z,10.80
2023-04-04T23:12:32.146Z,10.80
2023-04-04T23:15:01.556Z,16.20
2023-04-04T23:17:30.594Z,12.60
2023-04-04T23:19:59.021Z,11.00
2023-04-04T23:22:26.792Z,11.80
2023-04-04T23:24:54.449Z,11.40
2023-04-04T23:27:22.112Z,13.80
2023-04-04T23:29:51.103Z,6.50
2023-04-04T23:32:18.762Z,14.20
2023-04-04T23:34:46.526Z,11.60
2023-04-04T23:37:14.191Z,12.40
2023-04-04T23:39:42.166Z,11.30
2023-04-04T23:42:09.817Z,10.90
2023-04-04T23:44:37.480Z,12.30
2023-04-04T23:47:05.245Z,9.80
2023-04-04T23:49:33.009Z,11.90
2023-04-04T23:52:00.993Z,10.70
2023-04-04T23:54:28.740Z,10.50
2023-04-04T23:56:56.813Z,11.00
2023-04-04T23:59:24.698Z,11.30
